Time;durP1;ratioP1;P1;durP2;ratioP2;P2;SDS_P1;SDS_P2;PMS_P1;PMS_P2;Temp;Humidity;BMP_temperature;BMP_pressure;BME280_temperature;BME280_humidity;BME280_pressure;Samples;Min_cycle;Max_cycle;Signal;HPM_P1;HPM_P2
2022/11/01 00:02:07;;;;;;;10.98;4.07;;;;;;;15.05;66.54;100243.50;4447284;32;33506;-63
2022/11/01 00:04:35;;;;;;;6.30;3.62;;;;;;;14.95;67.02;100247.97;4448898;32;34270;-67
2022/11/01 00:07:03;;;;;;;6.18;3.75;;;;;;;14.67;67.67;100244.94;4453376;32;33854;-64
2022/11/01 00:09:30;;;;;;;7.12;4.55;;;;;;;14.75;67.61;100235.34;4450505;32;34254;-70
2022/11/01 00:11:58;;;;;;;10.70;5.37;;;;;;;15.04;66.87;100232.84;4448804;32;33756;-64
2022/11/01 00:14:26;;;;;;;11.52;3.95;;;;;;;15.25;66.01;100236.41;4448598;32;34642;-64
2022/11/01 00:16:53;;;;;;;4.15;2.92;;;;;;;14.95;67.08;100241.72;4447608;32;34311;-62
2022/11/01 00:19:21;;;;;;;6.70;3.60;;;;;;;15.37;65.77;100232.63;4447679;32;34998;-66
2022/11/01 00:21:49;;;;;;;7.85;5.05;;;;;;;15.28;65.63;100232.56;4451748;32;33447;-64
2022/11/01 00:24:16;;;;;;;10.07;6.28;;;;;;;15.29;65.83;100237.84;4433771;32;33620;-64
2022/11/01 00:26:44;;;;;;;6.87;4.30;;;;;;;15.49;65.37;100241.50;4441451;32;33536;-64
2022/11/01 00:29:12;;;;;;;5.68;4.15;;;;;;;15.51;65.23;100236.84;4440499;32;34904;-64
2022/11/01 00:31:39;;;;;;;7.65;4.43;;;;;;;15.41;65.58;100229.66;4450806;32;33360;-64
2022/11/01 00:34:08;;;;;;;10.88;6.12;;;;;;;15.49;65.11;100225.31;4442813;32;34986;-64
2022/11/01 00:36:35;;;;;;;17.42;6.57;;;;;;;15.44;65.02;100227.56;4444770;32;35042;-63
2022/11/01 00:39:04;;;;;;;17.40;5.20;;;;;;;15.24;65.95;100233.81;4442223;32;34061;-63
2022/11/01 00:41:31;;;;;;;13.27;4.95;;;;;;;15.16;65.75;100231.81;4444301;32;144636;-64
2022/11/01 00:43:59;;;;;;;5.05;4.18;;;;;;;14.42;68.49;100235.31;4440769;32;33801;-64
2022/11/01 00:46:26;;;;;;;10.25;5.20;;;;;;;14.24;69.32;100228.75;4451291;32;33892;-64
2022/11/01 00:48:54;;;;;;;8.45;4.07;;;;;;;14.33;68.59;100224.44;4442180;32;34076;-65
2022/11/01 00:51:21;;;;;;;4.47;2.67;;;;;;;14.28;68.98;100229.34;4446396;32;33621;-65
2022/11/01 00:53:49;;;;;;;5.85;2.20;;;;;;;14.19;69.48;100229.12;4445710;32;34038;-64
2022/11/01 00:56:17;;;;;;;11.68;5.30;;;;;;;14.59;68.02;100214.22;4441826;32;33880;-63
2022/11/01 00:58:44;;;;;;;7.78;4.50;;;;;;;14.60;67.72;100206.00;4449655;32;33934;-64
2022/11/01 01:01:12;;;;;;;6.37;4.05;;;;;;;14.17;69.29;100206.00;4445775;32;34376;-65
2022/11/01 01:03:40;;;;;;;9.90;4.50;;;;;;;14.12;69.26;100206.37;4449082;32;34082;-63
2022/11/01 01:06:07;;;;;;;8.98;4.72;;;;;;;13.80;71.10;100192.00;4448618;32;35492;-64
2022/11/01 01:08:35;;;;;;;7.50;3.85;;;;;;;13.76;71.29;100204.84;4436322;32;32650;-66
2022/11/01 01:11:02;;;;;;;10.00;6.18;;;;;;;13.87;70.84;100209.38;4449344;32;32230;-63
2022/11/01 01:13:30;;;;;;;10.07;4.78;;;;;;;13.85;70.90;100203.25;4449286;32;33956;-64
2022/11/01 01:15:57;;;;;;;11.70;5.25;;;;;;;13.69;71.95;100201.81;4443293;32;34209;-64
2022/11/01 01:18:26;;;;;;;11.38;3.83;;;;;;;13.68;71.55;100189.34;4448572;32;34017;-65
2022/11/01 01:21:00;;;;;;;5.95;3.17;;;;;;;13.72;71.71;100180.03;4445422;32;33822;-64
2022/11/01 01:23:28;;;;;;;7.45;3.87;;;;;;;13.75;71.78;100179.78;4449954;32;33962;-64
2022/11/01 01:25:55;;;;;;;6.25;4.03;;;;;;;13.46;72.81;100192.03;4445688;32;34008;-63
2022/11/01 01:28:23;;;;;;;7.53;5.05;;;;;;;13.68;72.19;100183.97;4445908;32;34046;-64
2022/11/01 01:30:51;;;;;;;8.85;5.30;;;;;;;13.78;71.61;100189.44;4441995;32;33725;-65
2022/11/01 01:33:18;;;;;;;10.57;5.28;;;;;;;13.73;71.89;100184.44;4442077;32;32384;-64
2022/11/01 01:35:46;;;;;;;10.00;6.28;;;;;;;13.37;72.92;100190.06;4438387;32;32610;-64
2022/11/01 01:38:13;;;;;;;4.25;3.08;;;;;;;13.52;72.61;100191.56;4439545;32;33792;-65
2022/11/01 01:40:41;;;;;;;8.68;4.43;;;;;;;13.48;72.67;100173.94;4447888;32;35075;-64
2022/11/01 01:43:11;;;;;;;10.65;4.20;;;;;;;13.39;72.98;100178.22;4445370;32;33740;-66
2022/11/01 01:45:39;;;;;;;6.78;4.18;;;;;;;13.61;72.05;100180.06;4447612;32;34070;-65
2022/11/01 01:48:12;;;;;;;13.02;4.40;;;;;;;13.72;71.81;100176.50;4447747;32;33955;-64
2022/11/01 01:51:01;;;;;;;8.98;3.67;;;;;;;13.50;72.21;100188.12;4450121;32;34761;-64
2022/11/01 01:53:35;;;;;;;5.65;3.60;;;;;;;13.87;71.04;100182.47;4440176;32;34292;-64
2022/11/01 01:56:06;;;;;;;3.60;2.28;;;;;;;14.15;69.67;100171.12;4442302;32;34062;-64
2022/11/01 01:58:37;;;;;;;7.43;4.18;;;;;;;14.20;69.43;100166.22;4452664;32;34138;-65
2022/11/01 02:01:04;;;;;;;7.18;3.50;;;;;;;14.28;69.33;100179.03;4445164;32;33830;-63
2022/11/01 02:03:34;;;;;;;17.48;3.22;;;;;;;14.26;69.37;100180.16;4424313;32;33800;-64
2022/11/01 02:06:07;;;;;;;21.58;6.53;;;;;;;14.18;69.57;100176.25;4448140;32;34019;-67
2022/11/01 02:08:38;;;;;;;4.40;3.45;;;;;;;14.17;69.24;100165.63;4434524;32;33984;-66
2022/11/01 02:11:06;;;;;;;6.40;4.28;;;;;;;13.84;70.23;100164.75;4425937;32;32960;-64
2022/11/01 02:13:34;;;;;;;9.63;4.68;;;;;;;13.81;70.76;100172.22;4450368;32;33870;-64
2022/11/01 02:16:37;;;;;;;9.55;4.05;;;;;;;13.60;71.31;100167.56;4448377;32;34073;-63
2022/11/01 02:19:30;;;;;;;11.07;5.50;;;;;;;14.10;69.87;100164.44;4450006;32;35035;-64
2022/11/01 02:22:07;;;;;;;5.22;3.08;;;;;;;13.72;71.00;100165.72;4449908;32;34441;-63
2022/11/01 02:25:00;;;;;;;9.02;4.43;;;;;;;14.19;69.56;100167.22;4446120;32;33803;-64
2022/11/01 02:27:30;;;;;;;13.57;5.00;;;;;;;14.16;69.24;100163.94;4448860;32;33858;-64
2022/11/01 02:30:17;;;;;;;24.55;4.65;;;;;;;13.98;70.21;100161.75;4453456;32;34074;-65
2022/11/01 02:33:17;;;;;;;8.50;5.07;;;;;;;14.16;69.54;100159.41;4450631;32;35159;-64
2022/11/01 02:35:57;;;;;;;14.60;4.85;;;;;;;14.09;69.41;100152.81;4448975;32;33745;-64
2022/11/01 02:38:33;;;;;;;7.18;4.72;;;;;;;14.19;69.01;100143.00;4447783;32;34267;-64
2022/11/01 02:41:08;;;;;;;9.43;4.35;;;;;;;14.28;68.77;100141.34;4435181;32;34115;-66
2022/11/01 02:43:46;;;;;;;15.38;3.42;;;;;;;14.04;69.20;100138.87;4449305;32;33656;-64
2022/11/01 02:49:01;;;;;;;10.52;5.25;;;;;;;14.05;69.94;100143.25;4451058;32;34174;-64
2022/11/01 02:51:31;;;;;;;14.00;6.25;;;;;;;14.28;68.78;100135.97;4450019;32;34268;-65
2022/11/01 02:54:20;;;;;;;5.57;3.75;;;;;;;14.19;68.93;100134.91;4438154;32;32445;-64
2022/11/01 02:56:49;;;;;;;13.05;6.03;;;;;;;14.37;68.61;100142.41;4443708;32;33988;-65
2022/11/01 02:59:22;;;;;;;9.40;3.90;;;;;;;14.60;67.67;100141.34;4440075;32;33939;-64
2022/11/01 03:02:00;;;;;;;12.50;4.50;;;;;;;14.46;68.29;100147.03;4432382;32;33882;-64
2022/11/01 03:04:28;;;;;;;11.38;7.10;;;;;;;14.43;68.09;100148.13;4439850;32;34435;-64
2022/11/01 03:06:58;;;;;;;13.43;6.20;;;;;;;14.49;68.12;100140.53;4444392;32;33987;-62
2022/11/01 03:09:26;;;;;;;22.65;5.97;;;;;;;14.60;67.63;100140.50;4435289;32;34041;-63
2022/11/01 03:11:59;;;;;;;9.13;5.78;;;;;;;14.55;67.84;100145.44;4437031;32;34035;-64
2022/11/01 03:14:51;;;;;;;10.30;3.62;;;;;;;14.53;67.68;100152.78;4439986;32;32450;-64
2022/11/01 03:17:31;;;;;;;6.37;3.75;;;;;;;14.66;67.62;100154.28;4446908;32;32734;-65
2022/11/01 03:20:08;;;;;;;9.82;6.80;;;;;;;14.74;67.15;100139.34;4447717;32;33965;-64
2022/11/01 03:22:43;;;;;;;12.35;4.05;;;;;;;14.36;68.09;100138.03;4447031;32;32784;-63
2022/11/01 03:28:08;;;;;;;10.00;5.72;;;;;;;13.87;69.73;100150.19;4445605;32;34754;-64
2022/11/01 03:30:36;;;;;;;7.43;4.75;;;;;;;13.82;70.05;100142.47;4438001;32;35291;-63
2022/11/01 03:33:03;;;;;;;8.82;3.80;;;;;;;14.13;69.01;100148.03;4435571;32;33939;-64
2022/11/01 03:35:34;;;;;;;10.75;4.97;;;;;;;13.93;69.61;100152.34;4433099;32;33698;-64
2022/11/01 03:38:11;;;;;;;9.25;5.45;;;;;;;13.98;69.81;100150.13;4426138;32;33861;-63
2022/11/01 03:40:41;;;;;;;7.90;4.03;;;;;;;14.10;69.24;100149.13;4432931;32;33990;-64
2022/11/01 03:43:11;;;;;;;6.12;4.12;;;;;;;14.04;69.80;100151.47;4438485;32;34191;-64
2022/11/01 03:45:39;;;;;;;15.38;7.35;;;;;;;14.08;69.67;100143.00;4433970;32;33725;-62
2022/11/01 03:48:06;;;;;;;11.63;6.12;;;;;;;13.91;70.69;100154.31;4440273;32;34335;-65
2022/11/01 03:50:34;;;;;;;11.15;5.47;;;;;;;13.93;70.11;100147.84;4433208;32;35245;-63
2022/11/01 03:53:02;;;;;;;25.20;7.05;;;;;;;14.25;69.31;100149.66;4448044;32;33898;-63
2022/11/01 03:55:29;;;;;;;8.40;4.15;;;;;;;14.56;68.34;100142.59;4444020;32;34587;-64
2022/11/01 03:57:58;;;;;;;12.80;6.37;;;;;;;14.34;68.41;100148.91;4434528;32;34674;-62
2022/11/01 04:00:31;;;;;;;32.80;21.17;;;;;;;14.20;69.28;100135.75;4434881;32;33787;-65
2022/11/01 04:02:59;;;;;;;10.55;7.35;;;;;;;14.52;68.21;100129.53;4443726;32;35511;-66
2022/11/01 04:05:29;;;;;;;9.93;6.20;;;;;;;14.40;68.47;100118.78;4447219;32;33644;-66
2022/11/01 04:07:56;;;;;;;20.17;7.95;;;;;;;14.47;68.39;100129.03;4438702;32;32773;-66
2022/11/01 04:10:25;;;;;;;18.23;8.23;;;;;;;14.26;69.02;100124.47;4442374;32;34325;-65
2022/11/01 04:12:52;;;;;;;10.98;6.00;;;;;;;14.00;69.97;100118.59;4447469;32;35207;-65
2022/11/01 04:21:20;;;;;;;16.90;9.95;;;;;;;13.96;70.14;100114.41;4430321;32;32695;-64
2022/11/01 04:23:48;;;;;;;13.32;6.62;;;;;;;14.02;69.79;100116.59;4445145;32;33765;-66
2022/11/01 04:26:19;;;;;;;8.75;5.87;;;;;;;13.76;70.64;100118.75;4436518;32;32430;-69
2022/11/01 04:28:58;;;;;;;15.57;9.35;;;;;;;14.07;69.50;100119.78;4449457;32;33896;-67
2022/11/01 04:31:26;;;;;;;8.38;6.55;;;;;;;13.84;70.77;100120.84;4439740;32;34400;-69
2022/11/01 04:33:54;;;;;;;15.15;5.82;;;;;;;14.09;69.64;100123.22;4447024;32;33781;-67
2022/11/01 04:36:22;;;;;;;7.32;4.07;;;;;;;13.95;70.39;100118.09;4440999;32;33520;-69
2022/11/01 04:38:51;;;;;;;6.55;5.07;;;;;;;13.94;70.05;100116.41;4443812;32;33633;-66
2022/11/01 04:41:19;;;;;;;22.13;7.85;;;;;;;14.23;69.24;100119.34;4444404;32;33868;-67
2022/11/01 04:43:46;;;;;;;9.35;7.12;;;;;;;13.57;71.39;100122.09;4446217;32;35241;-67
2022/11/01 04:46:14;;;;;;;16.50;8.98;;;;;;;13.62;71.08;100113.66;4439078;32;33686;-68
2022/11/01 04:48:42;;;;;;;9.95;6.55;;;;;;;14.02;69.89;100118.44;4439924;32;34984;-65
2022/11/01 04:51:09;;;;;;;18.73;7.57;;;;;;;13.74;70.20;100112.66;4446277;32;33697;-65
2022/11/01 04:53:37;;;;;;;7.03;3.87;;;;;;;13.96;69.72;100119.81;4444702;32;32883;-65
2022/11/01 04:56:07;;;;;;;5.50;4.53;;;;;;;13.90;70.10;100121.19;4443812;32;32624;-67
2022/11/01 04:58:35;;;;;;;11.40;7.10;;;;;;;14.15;69.04;100122.66;4440670;32;32800;-64
2022/11/01 05:01:11;;;;;;;12.48;9.68;;;;;;;14.06;69.39;100126.16;4444276;32;32782;-67
2022/11/01 05:03:39;;;;;;;12.52;6.53;;;;;;;14.29;68.44;100124.22;4439711;32;36720;-65
2022/11/01 05:06:06;;;;;;;16.58;7.12;;;;;;;14.37;68.18;100126.25;4443044;32;33475;-65
2022/11/01 05:08:34;;;;;;;8.27;5.93;;;;;;;14.58;67.59;100121.78;4447029;32;34735;-65
2022/11/01 05:11:02;;;;;;;9.15;6.07;;;;;;;14.50;67.88;100126.06;4448689;32;32734;-64
2022/11/01 05:13:29;;;;;;;8.07;4.72;;;;;;;13.80;70.19;100120.22;4449039;32;34221;-65
2022/11/01 05:15:57;;;;;;;9.93;4.40;;;;;;;14.21;68.67;100121.31;4443814;32;34784;-65
2022/11/01 05:18:44;;;;;;;6.57;3.37;;;;;;;13.93;69.54;100115.56;4446957;32;34905;-65
2022/11/01 05:21:12;;;;;;;7.50;4.53;;;;;;;14.10;68.89;100118.69;4436988;32;34158;-65
2022/11/01 05:23:39;;;;;;;6.35;4.57;;;;;;;13.78;70.01;100118.66;4437119;32;32768;-66
2022/11/01 05:26:07;;;;;;;13.85;5.60;;;;;;;13.89;69.40;100111.37;4436325;32;35317;-66
2022/11/01 05:28:35;;;;;;;6.78;4.03;;;;;;;13.60;70.78;100103.03;4442939;32;35060;-65
2022/11/01 05:31:02;;;;;;;10.57;5.60;;;;;;;13.72;70.56;100103.88;4439554;32;33855;-64
2022/11/01 05:33:30;;;;;;;5.35;3.67;;;;;;;13.86;70.02;100102.72;4442455;32;34049;-65
2022/11/01 05:36:00;;;;;;;13.30;4.68;;;;;;;14.02;69.41;100103.16;4440380;32;33374;-65
2022/11/01 05:38:27;;;;;;;12.88;5.68;;;;;;;13.72;70.25;100112.78;4448168;32;35877;-65
2022/11/01 05:40:54;;;;;;;3.55;2.75;;;;;;;13.87;70.11;100117.91;4449396;32;34330;-67
2022/11/01 05:43:22;;;;;;;11.40;5.53;;;;;;;13.91;69.65;100117.50;4446144;32;33796;-65
2022/11/01 05:45:50;;;;;;;12.25;5.90;;;;;;;13.94;69.38;100116.41;4446456;32;33403;-65
2022/11/01 05:48:17;;;;;;;11.55;4.22;;;;;;;13.94;69.62;100119.09;4439417;32;34881;-71
2022/11/01 05:50:45;;;;;;;13.02;6.32;;;;;;;14.02;69.24;100118.44;4445865;32;34042;-64
2022/11/01 05:53:13;;;;;;;12.95;6.32;;;;;;;14.17;68.67;100111.78;4449425;32;35202;-64
2022/11/01 05:55:41;;;;;;;10.90;5.47;;;;;;;14.32;68.34;100123.97;4448269;32;31978;-69
2022/11/01 05:58:08;;;;;;;4.87;3.85;;;;;;;14.16;68.63;100119.00;4436050;32;33582;-67
2022/11/01 06:00:36;;;;;;;11.35;5.45;;;;;;;14.12;69.01;100116.69;4435754;32;33980;-67
2022/11/01 06:03:04;;;;;;;8.45;5.22;;;;;;;14.29;68.21;100123.38;4447594;32;35141;-68
2022/11/01 06:05:33;;;;;;;12.20;7.00;;;;;;;14.44;67.56;100122.06;4447070;32;33189;-64
2022/11/01 06:08:01;;;;;;;22.08;6.70;;;;;;;14.24;68.13;100123.75;4449652;32;32974;-64
2022/11/01 06:10:29;;;;;;;9.80;5.70;;;;;;;13.84;69.34;100137.00;4441156;32;35024;-67
2022/11/01 06:12:57;;;;;;;16.62;7.45;;;;;;;14.06;68.74;100127.97;4440131;32;34227;-66
2022/11/01 06:15:25;;;;;;;27.42;9.77;;;;;;;13.87;69.34;100128.66;4447421;32;33431;-69
2022/11/01 06:17:59;;;;;;;6.90;4.30;;;;;;;14.06;68.79;100128.84;4440919;32;32648;-64
2022/11/01 06:20:29;;;;;;;6.65;3.75;;;;;;;14.34;67.77;100135.44;4442294;32;32508;-67
2022/11/01 06:22:57;;;;;;;10.25;6.25;;;;;;;14.40;67.57;100131.38;4435986;32;33811;-66
2022/11/01 06:25:26;;;;;;;8.57;4.05;;;;;;;14.15;68.40;100136.13;4443016;32;33297;-68
2022/11/01 06:27:53;;;;;;;15.20;6.82;;;;;;;14.23;67.93;100126.56;4448206;32;34935;-66
2022/11/01 06:30:21;;;;;;;16.35;6.15;;;;;;;13.56;70.07;100124.94;4437695;32;34809;-78
2022/11/01 06:32:49;;;;;;;16.15;6.85;;;;;;;14.06;68.84;100133.34;4444900;32;34043;-66
2022/11/01 06:35:16;;;;;;;17.40;8.10;;;;;;;13.36;70.58;100127.38;4445511;32;32479;-64
2022/11/01 06:37:44;;;;;;;11.73;7.20;;;;;;;13.85;69.13;100130.62;4437321;32;33842;-64
2022/11/01 06:40:11;;;;;;;11.57;6.40;;;;;;;14.10;68.41;100137.50;4435164;32;35277;-66
2022/11/01 06:42:39;;;;;;;10.13;6.35;;;;;;;14.07;68.50;100138.63;4436424;32;35001;-66
2022/11/01 06:45:13;;;;;;;17.05;5.72;;;;;;;13.59;70.55;100143.50;4449221;32;32340;-64
2022/11/01 06:47:45;;;;;;;11.12;7.68;;;;;;;13.65;69.91;100146.56;4449068;32;33950;-65
2022/11/01 06:50:13;;;;;;;10.70;7.65;;;;;;;13.95;68.99;100147.69;4442920;32;34079;-64
2022/11/01 06:52:40;;;;;;;12.02;5.68;;;;;;;14.07;68.46;100148.53;4447846;32;33877;-67
2022/11/01 06:55:07;;;;;;;9.05;5.72;;;;;;;13.94;68.67;100148.69;4452645;32;33821;-67
2022/11/01 06:57:35;;;;;;;8.57;4.12;;;;;;;14.31;67.56;100148.31;4452825;32;33877;-64
2022/11/01 07:00:03;;;;;;;6.07;4.03;;;;;;;13.91;68.88;100141.72;4450620;32;35147;-64
2022/11/01 07:02:31;;;;;;;4.90;3.40;;;;;;;14.03;68.59;100150.62;4453334;32;35003;-64
2022/11/01 07:04:59;;;;;;;5.10;3.85;;;;;;;14.09;68.34;100151.94;4447591;32;32524;-65
2022/11/01 07:07:26;;;;;;;9.77;4.03;;;;;;;13.95;69.23;100145.87;4442963;32;32805;-64
2022/11/01 07:09:54;;;;;;;4.25;3.10;;;;;;;13.71;69.59;100162.19;4431612;32;32807;-64
2022/11/01 07:12:21;;;;;;;6.70;4.93;;;;;;;14.33;67.65;100154.44;4451088;32;34203;-66
2022/11/01 07:14:49;;;;;;;13.27;7.43;;;;;;;14.17;67.93;100158.41;4448545;32;33653;-64
2022/11/01 07:17:16;;;;;;;14.00;5.60;;;;;;;14.49;67.04;100154.84;4448737;32;32958;-65
2022/11/01 07:19:44;;;;;;;8.85;6.32;;;;;;;14.13;68.20;100156.97;4449914;32;34132;-64
2022/11/01 07:22:13;;;;;;;8.65;5.15;;;;;;;13.93;69.05;100144.28;4451727;32;33899;-67
2022/11/01 07:24:40;;;;;;;7.32;3.85;;;;;;;13.52;70.33;100148.53;4450926;32;33660;-64
2022/11/01 07:27:08;;;;;;;13.60;4.80;;;;;;;13.68;69.82;100153.53;4451684;32;34687;-64
2022/11/01 07:29:35;;;;;;;11.02;5.68;;;;;;;13.55;70.44;100155.47;4450954;32;34055;-64
2022/11/01 07:32:03;;;;;;;9.32;5.60;;;;;;;14.14;68.34;100155.97;4447315;32;34030;-64
2022/11/01 07:34:31;;;;;;;13.02;4.75;;;;;;;13.89;69.22;100161.66;4446413;32;33528;-64
2022/11/01 07:36:58;;;;;;;9.98;5.10;;;;;;;14.16;68.44;100156.69;4437034;32;33534;-63
2022/11/01 07:39:26;;;;;;;13.88;7.60;;;;;;;13.93;69.35;100160.41;4446459;32;33898;-66
2022/11/01 07:41:53;;;;;;;9.90;6.00;;;;;;;14.23;68.24;100164.28;4453094;32;34051;-64
2022/11/01 07:44:21;;;;;;;6.85;4.57;;;;;;;14.37;67.74;100166.66;4451986;32;34461;-69
2022/11/01 07:46:48;;;;;;;8.48;5.87;;;;;;;14.33;67.27;100166.06;4449675;32;33976;-64
2022/11/01 07:49:16;;;;;;;11.18;5.68;;;;;;;14.27;67.96;100161.19;4444838;32;34073;-64
2022/11/01 07:51:43;;;;;;;11.43;5.12;;;;;;;14.15;68.60;100164.88;4451515;32;34959;-64
2022/11/01 07:54:11;;;;;;;6.18;4.30;;;;;;;14.17;68.44;100171.00;4452736;32;33262;-66
2022/11/01 07:56:38;;;;;;;12.73;3.58;;;;;;;14.40;67.54;100167.25;4452311;32;33619;-68
2022/11/01 07:59:07;;;;;;;8.30;4.40;;;;;;;14.31;67.97;100169.84;4450062;32;34136;-63
2022/11/01 08:01:34;;;;;;;12.02;5.20;;;;;;;14.52;67.20;100160.00;4450403;32;34128;-69
2022/11/01 08:04:02;;;;;;;10.90;5.60;;;;;;;14.57;66.51;100157.75;4447343;32;33721;-64
2022/11/01 08:06:30;;;;;;;10.30;5.12;;;;;;;14.68;66.43;100152.34;4444997;32;34763;-66
2022/11/01 08:08:57;;;;;;;8.80;4.60;;;;;;;14.75;66.11;100152.66;4448579;32;33587;-65
2022/11/01 08:11:27;;;;;;;6.75;3.60;;;;;;;14.46;67.29;100152.41;4449337;32;34200;-64
2022/11/01 08:13:54;;;;;;;10.82;5.85;;;;;;;14.20;68.08;100147.38;4452311;32;34438;-66
2022/11/01 08:16:30;;;;;;;12.13;7.53;;;;;;;14.48;67.19;100150.47;4451096;32;33554;-65
2022/11/01 08:18:58;;;;;;;7.82;5.60;;;;;;;14.51;67.49;100147.53;4446756;32;35213;-64
2022/11/01 08:21:26;;;;;;;6.25;4.25;;;;;;;14.86;66.21;100146.34;4450893;32;35003;-67
2022/11/01 08:23:53;;;;;;;6.47;3.70;;;;;;;14.57;66.66;100149.69;4451098;32;33624;-65
2022/11/01 08:26:21;;;;;;;8.00;5.47;;;;;;;14.43;66.89;100153.53;4451689;32;34029;-65
2022/11/01 08:28:49;;;;;;;13.93;5.53;;;;;;;13.95;68.62;100150.41;4450876;32;35273;-64
2022/11/01 08:31:17;;;;;;;9.18;5.22;;;;;;;13.63;70.55;100153.03;4450042;32;34222;-69
2022/11/01 08:33:45;;;;;;;21.45;5.20;;;;;;;14.09;68.54;100155.50;4450937;32;34545;-65
2022/11/01 08:36:13;;;;;;;10.65;5.53;;;;;;;14.37;67.46;100158.56;4447614;32;32415;-66
2022/11/01 08:38:43;;;;;;;6.90;3.67;;;;;;;14.26;67.85;100158.63;4444014;32;33427;-65
2022/11/01 08:41:10;;;;;;;7.47;4.65;;;;;;;14.29;67.81;100156.53;4443833;32;34201;-64
2022/11/01 08:43:38;;;;;;;10.70;5.97;;;;;;;14.40;67.20;100158.31;4451087;32;32331;-68
2022/11/01 08:46:09;;;;;;;6.35;3.95;;;;;;;14.31;67.62;100151.84;4437190;32;33565;-64
2022/11/01 08:48:36;;;;;;;9.02;4.40;;;;;;;14.61;66.72;100155.69;4447237;32;34965;-63
2022/11/01 08:51:04;;;;;;;11.38;6.18;;;;;;;14.41;67.37;100150.13;4442876;32;34233;-64
2022/11/01 08:53:33;;;;;;;12.43;6.78;;;;;;;14.42;67.52;100151.81;4446237;32;34443;-65
2022/11/01 08:56:01;;;;;;;9.18;5.12;;;;;;;14.49;67.39;100149.47;4451373;32;33169;-66
2022/11/01 08:58:28;;;;;;;14.13;6.05;;;;;;;14.64;66.71;100155.44;4449204;32;35201;-68
2022/11/01 09:00:56;;;;;;;10.20;6.03;;;;;;;14.70;66.31;100159.41;4449141;32;34252;-65
2022/11/01 09:03:24;;;;;;;11.12;7.18;;;;;;;14.38;67.43;100154.88;4442247;32;34693;-64
2022/11/01 09:05:51;;;;;;;14.30;7.78;;;;;;;14.26;67.89;100145.16;4439831;32;34874;-66
2022/11/01 09:08:19;;;;;;;9.75;6.68;;;;;;;14.25;67.98;100156.91;4450152;32;34065;-66
2022/11/01 09:10:46;;;;;;;14.35;6.15;;;;;;;14.54;67.08;100146.41;4451053;32;32982;-64
2022/11/01 09:13:14;;;;;;;9.95;6.43;;;;;;;14.20;68.01;100150.06;4451232;32;33459;-64
2022/11/01 09:15:41;;;;;;;7.87;4.18;;;;;;;14.58;66.66;100151.41;4448963;32;34002;-64
2022/11/01 09:18:09;;;;;;;9.27;4.93;;;;;;;14.62;66.45;100136.69;4440469;32;35174;-68
2022/11/01 09:20:37;;;;;;;5.82;4.35;;;;;;;14.79;66.23;100145.16;4447582;32;34175;-67
2022/11/01 09:23:04;;;;;;;9.48;6.25;;;;;;;14.88;66.06;100138.97;4447613;32;31940;-65
2022/11/01 09:25:32;;;;;;;14.05;7.82;;;;;;;14.96;65.85;100141.00;4435672;32;32536;-67
2022/11/01 09:28:00;;;;;;;13.65;5.15;;;;;;;14.94;65.85;100143.00;4445387;32;34258;-65
2022/11/01 09:30:29;;;;;;;7.65;5.43;;;;;;;14.98;65.54;100147.12;4449358;32;34158;-64
2022/11/01 09:32:56;;;;;;;7.70;4.70;;;;;;;15.13;64.93;100143.94;4450259;32;34785;-64
2022/11/01 09:35:23;;;;;;;10.55;7.12;;;;;;;15.14;65.11;100147.50;4448403;32;33884;-64
2022/11/01 09:37:59;;;;;;;11.12;6.32;;;;;;;14.99;65.77;100138.91;4446417;32;34117;-65
2022/11/01 09:40:27;;;;;;;;;;;;;;;14.97;65.79;100150.81;4431511;32;32520;-65
2022/11/01 09:42:55;;;;;;;11.10;5.55;;;;;;;14.73;66.00;100148.38;4436292;32;33752;-63
2022/11/01 09:45:30;;;;;;;12.27;8.32;;;;;;;14.67;66.09;100142.56;4447862;32;33821;-65
2022/11/01 09:48:00;;;;;;;13.88;7.95;;;;;;;14.91;65.41;100144.97;4444266;32;34421;-65
2022/11/01 09:50:36;;;;;;;13.07;6.82;;;;;;;14.84;65.71;100137.53;4451576;32;34253;-64
2022/11/01 09:53:08;;;;;;;17.85;7.78;;;;;;;14.78;66.31;100143.47;4437016;32;34199;-65
2022/11/01 09:56:08;;;;;;;12.37;7.62;;;;;;;14.91;65.56;100142.25;4447104;32;34223;-65
2022/11/01 09:59:00;;;;;;;10.98;5.97;;;;;;;15.03;65.29;100143.06;4450807;32;35049;-67
2022/11/01 10:02:00;;;;;;;14.50;6.90;;;;;;;14.82;65.93;100139.50;4447477;32;34301;-64
2022/11/01 10:04:47;;;;;;;10.77;6.35;;;;;;;15.14;65.07;100142.09;4448578;32;34478;-67
2022/11/01 10:07:40;;;;;;;9.50;5.15;;;;;;;15.13;64.98;100138.56;4444568;32;33660;-65
2022/11/01 10:10:39;;;;;;;11.40;6.62;;;;;;;14.48;67.19;100133.41;4446802;32;34173;-64
2022/11/01 10:13:25;;;;;;;10.77;5.05;;;;;;;14.59;66.42;100136.94;4446059;32;35465;-67
2022/11/01 10:16:04;;;;;;;13.80;7.40;;;;;;;14.42;66.90;100132.97;4449094;32;33781;-65
2022/11/01 10:18:39;;;;;;;11.40;4.80;;;;;;;14.35;66.92;100122.81;4440159;32;33844;-65
2022/11/01 10:21:12;;;;;;;10.40;5.65;;;;;;;14.23;68.01;100123.88;4449486;32;34003;-64
2022/11/01 10:23:49;;;;;;;15.55;7.62;;;;;;;14.42;67.67;100124.91;4448250;32;34251;-65
2022/11/01 10:26:22;;;;;;;12.50;4.40;;;;;;;14.79;66.26;100119.06;4452793;32;33633;-64
2022/11/01 10:28:49;;;;;;;12.50;6.68;;;;;;;14.56;67.05;100120.19;4446162;32;35120;-65
2022/11/01 10:31:21;;;;;;;9.80;5.53;;;;;;;14.58;67.24;100127.16;4445939;32;33874;-66
2022/11/01 10:34:04;;;;;;;9.88;6.05;;;;;;;14.55;67.35;100116.66;4437868;32;32754;-64
2022/11/01 10:36:33;;;;;;;6.07;5.12;;;;;;;13.75;69.93;100122.44;4452753;32;34682;-66
2022/11/01 10:39:14;;;;;;;13.82;7.47;;;;;;;14.39;68.01;100121.59;4444780;32;36889;-65
2022/11/01 10:42:08;;;;;;;8.15;5.40;;;;;;;14.33;68.20;100122.13;4445290;32;35008;-65
2022/11/01 10:44:56;;;;;;;15.45;7.62;;;;;;;14.73;67.05;100124.13;4446856;32;33880;-68
2022/11/01 10:47:24;;;;;;;10.55;6.00;;;;;;;14.60;67.29;100118.94;4430931;32;33700;-64
2022/11/01 10:49:56;;;;;;;8.13;5.32;;;;;;;14.65;67.06;100120.25;4447334;32;31283;-64
2022/11/01 10:52:54;;;;;;;22.42;7.85;;;;;;;14.61;66.94;100115.28;4437936;32;34137;-65
2022/11/01 10:55:37;;;;;;;11.27;6.45;;;;;;;15.00;65.73;100124.44;4445615;32;33865;-65
2022/11/01 10:58:12;;;;;;;7.45;4.60;;;;;;;14.97;65.82;100118.47;4444492;32;34753;-65
2022/11/01 11:00:41;;;;;;;6.75;4.62;;;;;;;15.10;65.66;100114.56;4432229;32;33820;-64
2022/11/01 11:03:23;;;;;;;8.07;4.00;;;;;;;15.27;65.10;100120.31;4449718;32;33940;-65
2022/11/01 11:05:52;;;;;;;10.98;6.32;;;;;;;15.05;65.85;100114.09;4442161;32;34238;-67
2022/11/01 11:08:22;;;;;;;13.27;7.00;;;;;;;15.29;65.05;100115.63;4433847;32;33903;-64
2022/11/01 11:10:50;;;;;;;18.62;7.95;;;;;;;14.96;65.77;100114.94;4448548;32;32498;-64
2022/11/01 11:13:22;;;;;;;9.88;5.15;;;;;;;14.84;66.55;100113.28;4449989;32;34286;-64
2022/11/01 11:16:15;;;;;;;9.60;6.50;;;;;;;15.04;66.14;100119.63;4449917;32;33508;-64
2022/11/01 11:19:00;;;;;;;10.55;6.55;;;;;;;14.96;66.59;100109.53;4448779;32;33675;-66
2022/11/01 11:21:32;;;;;;;12.80;7.82;;;;;;;15.02;66.33;100108.97;4449629;32;33617;-65
2022/11/01 11:24:01;;;;;;;13.90;7.40;;;;;;;14.87;66.37;100102.25;4448319;32;33249;-66
2022/11/01 11:26:37;;;;;;;13.25;7.78;;;;;;;15.06;65.79;100106.88;4446665;32;33708;-64
2022/11/01 11:29:05;;;;;;;10.63;7.03;;;;;;;15.41;64.52;100102.88;4444582;32;33523;-65
2022/11/01 11:31:33;;;;;;;12.05;7.18;;;;;;;14.86;65.98;100103.22;4446359;32;34860;-64
2022/11/01 11:34:19;;;;;;;14.48;6.20;;;;;;;14.72;66.18;100096.34;4449642;32;32284;-65
2022/11/01 11:36:48;;;;;;;;;;;;;;;14.91;65.89;100101.84;4431602;32;32607;-64
2022/11/01 11:39:35;;;;;;;10.73;6.62;;;;;;;15.05;65.67;100105.16;4434528;32;34658;-64
2022/11/01 11:42:23;;;;;;;11.20;7.62;;;;;;;15.29;64.59;100096.75;4436850;32;32543;-65
2022/11/01 11:44:55;;;;;;;13.98;8.02;;;;;;;15.08;64.90;100094.97;4448118;32;34127;-64
2022/11/01 11:47:25;;;;;;;24.25;8.77;;;;;;;14.89;65.65;100092.16;4436134;32;35140;-66
2022/11/01 11:49:55;;;;;;;22.27;11.00;;;;;;;14.80;66.01;100093.84;4441918;32;33654;-65
2022/11/01 11:52:26;;;;;;;16.40;7.00;;;;;;;14.91;65.69;100090.22;4443176;32;32378;-65